Time;durP1;ratioP1;P1;durP2;ratioP2;P2;SDS_P1;SDS_P2;PMS_P1;PMS_P2;Temp;Humidity;BMP_temperature;BMP_pressure;BME280_temperature;BME280_humidity;BME280_pressure;Samples;Min_cycle;Max_cycle;Signal;HPM_P1;HPM_P2
2023/02/21 02:15:11;;;;;;;0.97;0.70;;;9.00;99.90;;;;;;4983265;28;20533;-68
2023/02/21 02:17:50;;;;;;;1.63;1.00;;;9.00;99.90;;;;;;4985639;28;21092;-68
2023/02/21 02:20:54;;;;;;;1.60;1.00;;;9.00;99.90;;;;;;4985378;28;20492;-68
2023/02/21 02:23:53;;;;;;;0.80;0.80;;;9.00;99.90;;;;;;4975773;28;20472;-68
2023/02/21 02:27:05;;;;;;;1.70;1.00;;;9.00;99.90;;;;;;4986397;28;20485;-68
2023/02/21 02:29:53;;;;;;;3.90;1.50;;;8.90;99.90;;;;;;4980431;28;20878;-68
2023/02/21 02:32:46;;;;;;;1.07;0.97;;;8.90;99.90;;;;;;4980023;28;21219;-67
2023/02/21 02:35:22;;;;;;;1.50;1.10;;;8.90;99.90;;;;;;4979355;28;20499;-67
2023/02/21 02:37:55;;;;;;;1.40;0.97;;;8.90;99.90;;;;;;4973012;28;20501;-67
2023/02/21 02:40:32;;;;;;;1.37;0.87;;;8.90;99.90;;;;;;4979067;28;21054;-68
2023/02/21 02:43:09;;;;;;;1.10;1.00;;;8.90;99.90;;;;;;4982072;28;20871;-68
2023/02/21 02:45:42;;;;;;;1.93;0.97;;;8.90;99.90;;;;;;4981083;28;20590;-67
2023/02/21 02:48:15;;;;;;;1.13;1.00;;;8.90;99.90;;;;;;4979850;28;20465;-67
2023/02/21 02:50:47;;;;;;;1.97;1.20;;;9.00;99.90;;;;;;4979392;28;20604;-67
2023/02/21 02:53:17;;;;;;;1.40;0.90;;;9.00;99.90;;;;;;4978429;28;21066;-67
2023/02/21 02:55:51;;;;;;;2.43;0.90;;;8.90;99.90;;;;;;4976706;28;20468;-67
2023/02/21 02:58:22;;;;;;;1.13;1.00;;;8.90;99.90;;;;;;4980803;28;20574;-68
2023/02/21 03:01:10;;;;;;;1.10;0.90;;;8.90;99.90;;;;;;4980724;28;20488;-68
2023/02/21 03:03:51;;;;;;;1.20;0.93;;;8.90;99.90;;;;;;4984125;28;21094;-67
2023/02/21 03:06:32;;;;;;;1.60;0.90;;;9.00;99.90;;;;;;4981019;28;20560;-67
2023/02/21 03:09:08;;;;;;;1.43;1.00;;;9.00;99.90;;;;;;4984718;28;20500;-68
2023/02/21 03:11:42;;;;;;;1.03;0.90;;;9.00;99.90;;;;;;4986964;28;20460;-68
2023/02/21 03:14:15;;;;;;;0.70;0.70;;;9.00;99.90;;;;;;4978353;28;20495;-68
2023/02/21 03:16:48;;;;;;;0.87;0.80;;;9.00;99.90;;;;;;4981734;28;20488;-68
2023/02/21 03:19:19;;;;;;;1.63;0.87;;;9.00;99.90;;;;;;4982599;28;21031;-68
2023/02/21 03:21:51;;;;;;;1.10;0.87;;;9.00;99.90;;;;;;4977502;28;21085;-68
2023/02/21 03:24:23;;;;;;;1.23;1.07;;;8.90;99.90;;;;;;4982747;28;20484;-68
2023/02/21 03:26:54;;;;;;;1.07;1.00;;;9.00;99.90;;;;;;4978397;28;20497;-68
2023/02/21 03:29:22;;;;;;;1.43;1.10;;;9.00;99.90;;;;;;4971742;28;20497;-68
2023/02/21 03:31:56;;;;;;;2.13;1.17;;;9.00;99.90;;;;;;4973820;28;20465;-68
2023/02/21 03:34:24;;;;;;;1.83;1.30;;;9.00;99.90;;;;;;4973163;28;20484;-68
2023/02/21 03:36:53;;;;;;;2.03;1.40;;;8.90;99.90;;;;;;4974740;28;23528;-67
2023/02/21 03:39:21;;;;;;;1.40;1.30;;;8.90;99.90;;;;;;4972424;28;20501;-68
2023/02/21 03:41:49;;;;;;;1.50;1.40;;;8.90;99.90;;;;;;4977386;28;20473;-68
2023/02/21 03:44:17;;;;;;;2.00;1.80;;;8.90;99.90;;;;;;4971769;28;20564;-67
2023/02/21 03:46:45;;;;;;;2.10;1.90;;;8.90;99.90;;;;;;4978318;28;21485;-67
2023/02/21 03:49:13;;;;;;;1.87;1.77;;;8.90;99.90;;;;;;4981516;28;20489;-67
2023/02/21 03:51:41;;;;;;;2.53;2.33;;;8.90;99.90;;;;;;4980716;28;20477;-67
2023/02/21 03:54:10;;;;;;;1.70;1.60;;;8.80;99.90;;;;;;4978187;28;20941;-66
2023/02/21 03:56:38;;;;;;;2.40;1.93;;;8.90;99.90;;;;;;4982132;28;20507;-66
2023/02/21 03:59:09;;;;;;;3.10;2.27;;;8.80;99.90;;;;;;4982304;28;20572;-66
2023/02/21 04:01:37;;;;;;;2.20;2.00;;;8.80;99.90;;;;;;4986852;28;20996;-66
2023/02/21 04:04:05;;;;;;;2.73;2.20;;;8.80;99.90;;;;;;4987859;28;20473;-67
2023/02/21 04:06:33;;;;;;;3.43;2.73;;;8.70;99.90;;;;;;4983558;28;20500;-67
2023/02/21 04:09:01;;;;;;;2.63;2.27;;;8.70;99.90;;;;;;4979430;28;20493;-67
2023/02/21 04:11:31;;;;;;;2.90;2.30;;;8.70;99.90;;;;;;4979220;28;20858;-67
2023/02/21 04:13:59;;;;;;;2.23;1.90;;;8.70;99.90;;;;;;4982290;28;20840;-67
2023/02/21 04:16:27;;;;;;;2.57;2.37;;;8.70;99.90;;;;;;4986413;28;20853;-67
2023/02/21 04:18:56;;;;;;;3.50;3.00;;;8.70;99.90;;;;;;4984621;28;20509;-66
2023/02/21 04:21:23;;;;;;;2.67;2.30;;;8.70;99.90;;;;;;4988171;28;20476;-67
2023/02/21 04:23:51;;;;;;;3.13;2.50;;;8.70;99.90;;;;;;4989394;28;20495;-66
2023/02/21 04:26:19;;;;;;;3.13;2.60;;;8.60;99.90;;;;;;4988605;28;20496;-67
2023/02/21 04:28:48;;;;;;;2.90;2.53;;;8.70;99.90;;;;;;4985420;28;20987;-67
2023/02/21 04:31:17;;;;;;;3.10;2.73;;;8.70;99.90;;;;;;4984292;28;20473;-66
2023/02/21 04:33:45;;;;;;;3.67;2.43;;;8.70;99.90;;;;;;4990091;28;20997;-67
2023/02/21 04:36:13;;;;;;;4.27;2.93;;;8.70;99.90;;;;;;4990715;28;20528;-66
2023/02/21 04:38:41;;;;;;;3.73;2.97;;;8.70;99.90;;;;;;4990297;28;20564;-66
2023/02/21 04:41:09;;;;;;;5.63;2.70;;;8.70;99.90;;;;;;4986496;28;21437;-67
2023/02/21 04:43:37;;;;;;;3.13;2.40;;;8.60;99.90;;;;;;4989354;28;20856;-66
2023/02/21 04:46:06;;;;;;;6.97;2.60;;;8.60;99.90;;;;;;4989035;28;20818;-66
2023/02/21 04:48:34;;;;;;;4.43;2.27;;;8.50;99.90;;;;;;4991424;28;21038;-67
2023/02/21 04:51:02;;;;;;;5.37;2.37;;;8.50;99.90;;;;;;4985391;28;20497;-68
2023/02/21 04:53:43;;;;;;;4.70;2.23;;;8.50;99.90;;;;;;4985004;28;20465;-68
2023/02/21 04:56:11;;;;;;;5.23;1.70;;;8.50;99.90;;;;;;4988563;28;20500;-68
2023/02/21 04:58:39;;;;;;;8.17;2.40;;;8.40;99.90;;;;;;4975184;28;20477;-68
2023/02/21 05:01:14;;;;;;;9.50;2.33;;;8.40;99.90;;;;;;4988363;28;20473;-68
2023/02/21 05:03:43;;;;;;;6.43;2.37;;;8.30;99.90;;;;;;4986958;28;20472;-68
2023/02/21 05:06:16;;;;;;;4.27;1.93;;;8.30;99.90;;;;;;4980187;28;20493;-67
2023/02/21 05:08:44;;;;;;;5.93;2.03;;;8.30;99.90;;;;;;4978956;28;21003;-68
2023/02/21 05:11:12;;;;;;;8.03;2.67;;;8.20;99.90;;;;;;4984398;28;20477;-67
2023/02/21 05:13:41;;;;;;;5.80;2.23;;;8.20;99.90;;;;;;4982856;28;20501;-67
2023/02/21 05:16:09;;;;;;;8.60;2.20;;;8.20;99.90;;;;;;4985367;28;20493;-67
2023/02/21 05:18:41;;;;;;;8.57;2.30;;;8.20;99.90;;;;;;4984847;28;20505;-67
2023/02/21 05:21:09;;;;;;;8.03;2.70;;;8.20;99.90;;;;;;4986050;28;20481;-68
2023/02/21 05:23:39;;;;;;;7.47;3.57;;;8.10;99.90;;;;;;4971637;28;20588;-68
2023/02/21 05:26:10;;;;;;;6.73;2.40;;;8.10;99.90;;;;;;4983873;28;20500;-67
2023/02/21 05:28:39;;;;;;;12.17;2.90;;;8.10;99.90;;;;;;4974464;28;20474;-67
2023/02/21 05:31:07;;;;;;;7.60;2.97;;;8.10;99.90;;;;;;4964759;28;20457;-68
2023/02/21 05:33:35;;;;;;;7.90;2.30;;;8.10;99.90;;;;;;4979477;28;20876;-68
2023/02/21 05:36:05;;;;;;;5.63;2.13;;;8.10;99.90;;;;;;4969925;28;20489;-67
2023/02/21 05:38:33;;;;;;;8.53;2.43;;;8.10;99.90;;;;;;4974887;28;20846;-68
2023/02/21 05:41:01;;;;;;;4.60;2.77;;;8.00;99.90;;;;;;4972902;28;20504;-68
2023/02/21 05:43:32;;;;;;;9.57;3.43;;;8.00;99.90;;;;;;4977663;28;20485;-68
2023/02/21 05:46:00;;;;;;;6.60;2.50;;;8.00;99.90;;;;;;4973271;28;20493;-68
2023/02/21 05:48:28;;;;;;;7.83;2.67;;;8.00;99.90;;;;;;4974920;28;20465;-69
2023/02/21 05:50:56;;;;;;;8.43;2.20;;;8.00;99.90;;;;;;4981778;28;20500;-68
2023/02/21 05:53:25;;;;;;;8.20;3.23;;;8.00;99.90;;;;;;4972771;28;21307;-68
2023/02/21 05:55:53;;;;;;;8.47;2.97;;;8.00;99.90;;;;;;4976897;28;21502;-68
2023/02/21 05:58:21;;;;;;;11.27;3.77;;;8.00;99.90;;;;;;4979847;28;20823;-68
2023/02/21 06:00:49;;;;;;;11.10;2.60;;;8.00;99.90;;;;;;4969059;28;20516;-68
2023/02/21 06:03:17;;;;;;;6.80;2.30;;;8.00;99.90;;;;;;4975580;28;20473;-68
2023/02/21 06:05:45;;;;;;;5.30;2.40;;;8.00;99.90;;;;;;4980883;28;21126;-68
2023/02/21 06:08:12;;;;;;;12.67;2.80;;;8.00;99.90;;;;;;4984017;28;20488;-68
2023/02/21 06:10:42;;;;;;;10.67;2.50;;;8.00;99.90;;;;;;4981975;28;20489;-68
2023/02/21 06:13:10;;;;;;;10.47;2.70;;;8.00;99.90;;;;;;4975633;28;20956;-69
2023/02/21 06:15:38;;;;;;;6.43;2.50;;;8.00;99.90;;;;;;4973351;28;21133;-68
2023/02/21 06:18:06;;;;;;;9.13;3.03;;;7.90;99.90;;;;;;4961638;28;20488;-69
2023/02/21 06:20:34;;;;;;;10.10;3.13;;;7.90;99.90;;;;;;4978534;28;20504;-68
2023/02/21 06:23:01;;;;;;;11.70;3.40;;;7.90;99.90;;;;;;4965595;28;20588;-69
2023/02/21 06:25:30;;;;;;;8.97;3.40;;;8.00;99.90;;;;;;4940249;28;21609;-68
2023/02/21 06:27:59;;;;;;;10.33;3.53;;;8.00;99.90;;;;;;4939271;28;20979;-68
2023/02/21 06:30:27;;;;;;;9.93;2.97;;;8.00;99.90;;;;;;4950626;28;25705;-68
2023/02/21 06:32:55;;;;;;;11.10;2.80;;;8.00;99.90;;;;;;4936835;28;20473;-67
2023/02/21 06:35:23;;;;;;;10.00;2.80;;;8.00;99.90;;;;;;4948503;28;20481;-67
2023/02/21 06:37:51;;;;;;;11.50;3.37;;;7.90;99.90;;;;;;4961224;28;21785;-67
2023/02/21 06:40:19;;;;;;;11.83;3.13;;;7.90;99.90;;;;;;4961188;28;20584;-67
2023/02/21 06:42:47;;;;;;;15.67;3.73;;;7.90;99.90;;;;;;4959293;28;20477;-67
2023/02/21 06:45:16;;;;;;;9.83;3.23;;;7.90;99.90;;;;;;4967061;28;20584;-67
2023/02/21 06:47:44;;;;;;;15.77;3.27;;;7.90;99.90;;;;;;4959670;28;20499;-67
2023/02/21 06:50:12;;;;;;;10.93;2.67;;;7.90;99.90;;;;;;4954591;28;20493;-67
2023/02/21 06:52:40;;;;;;;10.53;3.03;;;7.90;99.90;;;;;;4967538;28;20473;-67
2023/02/21 06:55:08;;;;;;;5.87;3.10;;;7.80;99.90;;;;;;4973870;28;20850;-67
2023/02/21 06:57:36;;;;;;;10.73;3.30;;;7.80;99.90;;;;;;4975923;28;20502;-68
2023/02/21 07:00:05;;;;;;;8.57;3.40;;;7.90;99.90;;;;;;4959034;28;20485;-67
2023/02/21 07:02:34;;;;;;;8.60;2.97;;;7.90;99.90;;;;;;4957292;28;20480;-68
2023/02/21 07:05:02;;;;;;;7.30;2.60;;;7.90;99.90;;;;;;4967503;28;20841;-67
2023/02/21 07:07:30;;;;;;;7.43;2.80;;;7.90;99.90;;;;;;4959150;28;21240;-67
2023/02/21 07:09:58;;;;;;;11.10;4.00;;;7.90;99.90;;;;;;4962496;28;20817;-67
2023/02/21 07:12:27;;;;;;;9.27;3.00;;;7.90;99.90;;;;;;4965230;28;20491;-67
2023/02/21 07:14:55;;;;;;;15.23;3.37;;;7.90;99.90;;;;;;4965187;28;20468;-67
2023/02/21 07:17:23;;;;;;;9.37;2.93;;;7.90;99.90;;;;;;4966716;28;20481;-67
2023/02/21 07:19:52;;;;;;;10.93;2.60;;;7.90;99.90;;;;;;4970587;28;20575;-67
2023/02/21 07:22:24;;;;;;;7.37;3.53;;;7.90;99.90;;;;;;4960601;28;20480;-66
2023/02/21 07:24:53;;;;;;;11.60;3.17;;;7.90;99.90;;;;;;4971391;28;21334;-67
2023/02/21 07:27:21;;;;;;;10.00;2.90;;;8.00;99.90;;;;;;4966689;28;20496;-66
2023/02/21 07:29:50;;;;;;;11.77;3.50;;;8.00;99.90;;;;;;4964878;28;20493;-67
2023/02/21 07:32:18;;;;;;;14.90;3.63;;;8.00;99.90;;;;;;4972520;28;20473;-67
2023/02/21 07:34:46;;;;;;;10.73;3.73;;;8.00;99.90;;;;;;4972191;28;20579;-66
2023/02/21 07:37:15;;;;;;;5.53;3.10;;;8.00;99.90;;;;;;4972468;28;21078;-67
2023/02/21 07:39:44;;;;;;;7.40;2.90;;;8.00;99.90;;;;;;4967315;28;20497;-67
2023/02/21 07:42:12;;;;;;;9.03;3.63;;;8.00;99.90;;;;;;4964537;28;20486;-67
2023/02/21 07:44:40;;;;;;;7.30;3.20;;;8.10;99.90;;;;;;4969393;28;20905;-66
2023/02/21 07:47:09;;;;;;;10.60;3.87;;;8.10;99.90;;;;;;4969607;28;20497;-67
2023/02/21 07:49:38;;;;;;;9.93;3.47;;;8.10;99.90;;;;;;4968114;28;20568;-67
2023/02/21 07:52:07;;;;;;;11.50;4.00;;;8.20;99.90;;;;;;4968347;28;20468;-67
2023/02/21 07:54:36;;;;;;;9.97;3.00;;;8.20;99.90;;;;;;4968714;28;20477;-68
2023/02/21 07:57:04;;;;;;;13.83;3.90;;;8.20;99.90;;;;;;4966216;28;20595;-68
2023/02/21 07:59:32;;;;;;;9.90;3.30;;;8.20;99.90;;;;;;4965985;28;20500;-67
2023/02/21 08:02:01;;;;;;;9.23;3.63;;;8.20;99.90;;;;;;4970072;28;20665;-67
2023/02/21 08:04:29;;;;;;;10.30;4.10;;;8.20;99.90;;;;;;4972790;28;20477;-67
2023/02/21 08:06:59;;;;;;;8.20;3.10;;;8.30;99.90;;;;;;4957120;28;20488;-68
2023/02/21 08:09:27;;;;;;;8.47;3.40;;;8.30;99.90;;;;;;4973597;28;22219;-68
2023/02/21 08:11:56;;;;;;;11.57;5.03;;;8.30;99.90;;;;;;4961356;28;20519;-68
2023/02/21 08:14:24;;;;;;;12.93;4.37;;;8.30;99.90;;;;;;4967169;28;20473;-68
2023/02/21 08:16:52;;;;;;;10.07;3.13;;;8.30;99.90;;;;;;4972443;28;21352;-68
2023/02/21 08:19:20;;;;;;;10.70;3.67;;;8.30;99.90;;;;;;4976699;28;20491;-68
2023/02/21 08:21:49;;;;;;;12.00;3.47;;;8.30;99.90;;;;;;4971610;28;20996;-68
2023/02/21 08:24:19;;;;;;;8.33;3.40;;;8.30;99.90;;;;;;4966639;28;20469;-68
2023/02/21 08:26:47;;;;;;;15.30;3.90;;;8.40;99.90;;;;;;4974146;28;20500;-68
2023/02/21 08:29:16;;;;;;;11.93;3.60;;;8.40;99.90;;;;;;4977096;28;21144;-67
2023/02/21 08:31:45;;;;;;;8.70;3.33;;;8.50;99.90;;;;;;4980898;28;20480;-67
2023/02/21 08:34:13;;;;;;;9.73;3.20;;;8.50;99.90;;;;;;4977393;28;20902;-68
2023/02/21 08:36:43;;;;;;;11.47;3.70;;;8.60;99.90;;;;;;4977848;28;20497;-68
2023/02/21 08:39:11;;;;;;;7.87;3.03;;;8.60;99.90;;;;;;4977549;28;20587;-67
2023/02/21 08:41:42;;;;;;;10.70;3.70;;;8.60;99.90;;;;;;4970370;28;20468;-68
2023/02/21 08:44:10;;;;;;;15.27;4.23;;;8.60;99.90;;;;;;4967690;28;20473;-68
2023/02/21 08:46:39;;;;;;;14.30;3.67;;;8.60;99.90;;;;;;4973621;28;20489;-68
2023/02/21 08:49:08;;;;;;;10.97;4.50;;;8.60;99.90;;;;;;4967802;28;20524;-68
2023/02/21 08:51:36;;;;;;;13.60;2.97;;;8.60;99.90;;;;;;4970843;28;20497;-68
2023/02/21 08:54:04;;;;;;;15.17;3.47;;;8.60;99.90;;;;;;4973375;28;20477;-68
2023/02/21 08:56:33;;;;;;;10.87;4.27;;;8.70;99.90;;;;;;4973943;28;20496;-67
2023/02/21 08:59:02;;;;;;;10.00;3.70;;;8.70;99.90;;;;;;4967499;28;20500;-68
2023/02/21 09:01:32;;;;;;;9.50;2.70;;;8.80;99.90;;;;;;4976061;28;20469;-68
2023/02/21 09:04:02;;;;;;;8.53;2.80;;;8.80;99.90;;;;;;4967127;28;20947;-68
2023/02/21 09:06:30;;;;;;;10.87;3.57;;;8.80;99.90;;;;;;4972770;28;20513;-67
2023/02/21 09:08:58;;;;;;;12.07;3.10;;;8.80;99.90;;;;;;4970477;28;20465;-68
2023/02/21 09:11:26;;;;;;;13.63;3.80;;;8.90;99.90;;;;;;4970037;28;20477;-68
2023/02/21 09:13:54;;;;;;;11.00;2.77;;;8.90;99.90;;;;;;4970957;28;20473;-68
2023/02/21 09:16:22;;;;;;;8.00;3.67;;;9.00;99.90;;;;;;4978657;28;20503;-68
2023/02/21 09:18:55;;;;;;;9.73;3.13;;;9.00;99.90;;;;;;4982074;28;21019;-67
2023/02/21 09:21:25;;;;;;;8.83;2.80;;;9.10;99.90;;;;;;4984257;28;20477;-68
2023/02/21 09:23:53;;;;;;;8.07;3.17;;;9.10;99.90;;;;;;4982187;28;20940;-68
2023/02/21 09:26:22;;;;;;;10.60;3.20;;;9.20;99.90;;;;;;4983782;28;21021;-68
2023/02/21 09:28:51;;;;;;;11.07;3.47;;;9.20;99.90;;;;;;4984199;28;20469;-68
2023/02/21 09:31:20;;;;;;;11.13;4.20;;;9.20;99.90;;;;;;4976126;28;20476;-68
2023/02/21 09:33:48;;;;;;;10.17;3.10;;;9.20;99.90;;;;;;4976836;28;20988;-68
2023/02/21 09:36:17;;;;;;;7.93;2.30;;;9.20;99.90;;;;;;4974078;28;20501;-68
2023/02/21 09:38:46;;;;;;;10.67;3.20;;;9.20;99.90;;;;;;4978871;28;20584;-68
2023/02/21 09:41:14;;;;;;;11.53;3.17;;;9.20;99.90;;;;;;4980025;28;20481;-68
2023/02/21 09:43:46;;;;;;;8.93;2.90;;;9.20;99.90;;;;;;4969227;28;20481;-68
2023/02/21 09:46:18;;;;;;;7.87;2.90;;;9.20;99.90;;;;;;4968233;28;20505;-68
2023/02/21 09:48:47;;;;;;;7.10;2.73;;;9.20;99.90;;;;;;4969572;28;20508;-68
2023/02/21 09:51:16;;;;;;;11.50;3.03;;;9.30;99.90;;;;;;4959501;28;20877;-68
2023/02/21 09:53:48;;;;;;;10.17;3.30;;;9.30;99.90;;;;;;4972740;28;20564;-68
2023/02/21 09:56:23;;;;;;;9.47;4.10;;;9.40;99.90;;;;;;4968972;28;20490;-68
2023/02/21 09:58:51;;;;;;;8.47;3.03;;;9.40;99.90;;;;;;4968715;28;20480;-68
2023/02/21 10:01:26;;;;;;;9.93;3.40;;;9.50;99.90;;;;;;4958584;28;20484;-68
2023/02/21 10:04:04;;;;;;;12.80;2.70;;;9.50;99.90;;;;;;4969321;28;20472;-67
2023/02/21 10:06:42;;;;;;;9.23;3.17;;;9.50;99.90;;;;;;4972456;28;20616;-69
2023/02/21 10:09:23;;;;;;;7.37;2.73;;;9.50;99.90;;;;;;4974643;28;20492;-67
2023/02/21 10:12:05;;;;;;;6.40;2.40;;;9.50;99.90;;;;;;4975564;28;20911;-67
2023/02/21 10:14:46;;;;;;;5.33;2.40;;;9.60;99.90;;;;;;4968464;28;21004;-67
2023/02/21 10:17:21;;;;;;;8.37;2.80;;;9.60;99.90;;;;;;4973557;28;20496;-67
2023/02/21 10:19:53;;;;;;;12.30;3.10;;;9.70;99.90;;;;;;4976666;28;20989;-67
2023/02/21 10:22:24;;;;;;;9.20;2.50;;;9.70;99.90;;;;;;4974778;28;20496;-67
2023/02/21 10:24:54;;;;;;;8.20;2.70;;;9.70;99.90;;;;;;4978956;28;20957;-66
2023/02/21 10:27:26;;;;;;;11.40;3.30;;;9.80;99.90;;;;;;4977952;28;21015;-67
2023/02/21 10:30:00;;;;;;;10.23;2.63;;;9.80;99.90;;;;;;4968487;28;20496;-69
2023/02/21 10:32:28;;;;;;;7.27;2.50;;;9.90;99.90;;;;;;4974042;28;20476;-69
2023/02/21 10:34:58;;;;;;;7.07;2.80;;;9.90;99.90;;;;;;4974601;28;20492;-69
2023/02/21 10:37:35;;;;;;;9.57;2.73;;;10.00;99.90;;;;;;4981922;28;20493;-69
2023/02/21 10:40:16;;;;;;;9.47;3.00;;;10.10;99.90;;;;;;4972967;28;20505;-69
2023/02/21 10:42:53;;;;;;;14.87;3.00;;;10.10;99.90;;;;;;4966694;28;20499;-69
2023/02/21 10:45:30;;;;;;;9.73;3.00;;;10.10;99.90;;;;;;4972266;28;20828;-69
2023/02/21 10:48:02;;;;;;;9.83;3.00;;;10.00;99.90;;;;;;4969866;28;20507;-69
2023/02/21 10:50:40;;;;;;;7.47;2.80;;;10.00;99.90;;;;;;4961937;28;20501;-69
2023/02/21 10:53:08;;;;;;;11.20;2.93;;;10.10;99.90;;;;;;4967310;28;20484;-69
2023/02/21 10:55:38;;;;;;;10.07;2.87;;;10.20;99.90;;;;;;4973405;28;20533;-69
2023/02/21 10:58:08;;;;;;;11.00;2.73;;;10.30;99.90;;;;;;4969544;28;20851;-67
2023/02/21 11:00:39;;;;;;;9.27;2.83;;;10.40;99.90;;;;;;4976135;28;20495;-67
2023/02/21 11:03:16;;;;;;;10.97;2.80;;;10.50;99.90;;;;;;4975344;28;20492;-67
2023/02/21 11:05:49;;;;;;;6.93;2.30;;;10.60;99.90;;;;;;4978707;28;20500;-67
2023/02/21 11:08:39;;;;;;;8.50;2.50;;;10.70;99.90;;;;;;4972566;28;20473;-67
2023/02/21 11:11:10;;;;;;;8.40;3.03;;;10.70;99.90;;;;;;4978028;28;20473;-69
2023/02/21 11:13:38;;;;;;;6.67;2.70;;;10.80;99.90;;;;;;4974141;28;21000;-69
2023/02/21 11:16:12;;;;;;;7.43;3.07;;;10.90;99.90;;;;;;4955129;28;20946;-67
2023/02/21 11:18:40;;;;;;;7.70;2.77;;;10.90;99.90;;;;;;4977193;28;21109;-69
2023/02/21 11:21:14;;;;;;;5.87;2.80;;;11.00;99.90;;;;;;4974446;28;20484;-69
2023/02/21 11:23:48;;;;;;;7.73;2.80;;;11.00;99.90;;;;;;4975005;28;20472;-67
2023/02/21 11:26:17;;;;;;;7.00;3.17;;;11.00;99.90;;;;;;4975455;28;20485;-69
2023/02/21 11:28:47;;;;;;;10.60;2.90;;;11.10;99.90;;;;;;4976385;28;21221;-68
2023/02/21 11:31:27;;;;;;;7.07;2.23;;;11.10;99.90;;;;;;4964473;28;20473;-69
2023/02/21 11:33:58;;;;;;;6.53;2.30;;;11.30;99.90;;;;;;4961146;28;20538;-67
2023/02/21 11:36:29;;;;;;;11.13;2.87;;;11.40;99.90;;;;;;4969543;28;20832;-67
2023/02/21 11:39:03;;;;;;;10.13;2.60;;;11.50;99.90;;;;;;4968159;28;20489;-68
2023/02/21 11:41:38;;;;;;;7.03;2.63;;;11.70;99.90;;;;;;4973922;28;20461;-67
2023/02/21 11:44:28;;;;;;;7.33;2.40;;;11.70;99.90;;;;;;4973337;28;20464;-68
2023/02/21 11:47:06;;;;;;;11.17;2.93;;;11.70;99.90;;;;;;4973218;28;20515;-68
2023/02/21 11:49:42;;;;;;;7.93;3.30;;;11.70;99.90;;;;;;4979570;28;20489;-68
2023/02/21 11:52:18;;;;;;;5.20;2.07;;;11.70;99.90;;;;;;4978043;28;20496;-68
2023/02/21 11:54:46;;;;;;;8.13;2.37;;;11.70;99.90;;;;;;4972603;28;20477;-68
2023/02/21 11:57:25;;;;;;;14.00;3.30;;;11.70;99.90;;;;;;4955259;28;20501;-68
2023/02/21 12:00:09;;;;;;;6.97;3.17;;;11.60;99.90;;;;;;4950921;28;20500;-68
2023/02/21 12:02:53;;;;;;;9.13;1.97;;;11.50;99.90;;;;;;4962291;28;20473;-69
2023/02/21 12:05:36;;;;;;;6.30;1.93;;;11.50;99.90;;;;;;4965043;28;20477;-68
2023/02/21 12:08:33;;;;;;;7.03;2.20;;;11.50;99.90;;;;;;4969125;28;20523;-68
2023/02/21 12:11:14;;;;;;;6.97;2.50;;;11.40;99.90;;;;;;4970835;28;20588;-68
2023/02/21 12:13:53;;;;;;;5.20;2.50;;;11.40;99.90;;;;;;4970957;28;20476;-68
2023/02/21 12:16:30;;;;;;;8.97;2.40;;;11.40;99.90;;;;;;4951398;28;20497;-69
2023/02/21 12:19:13;;;;;;;5.67;2.27;;;11.30;99.90;;;;;;4964603;28;20505;-68
2023/02/21 12:22:00;;;;;;;10.93;2.07;;;11.30;99.90;;;;;;4972152;28;21026;-68
2023/02/21 12:24:52;;;;;;;4.17;1.73;;;11.20;99.90;;;;;;4969827;28;20547;-69
2023/02/21 12:27:28;;;;;;;5.93;1.90;;;11.20;99.90;;;;;;4966674;28;20523;-70
2023/02/21 12:30:10;;;;;;;6.70;2.03;;;11.00;99.90;;;;;;4970904;28;20488;-67
2023/02/21 12:32:50;;;;;;;3.43;2.00;;;10.90;99.90;;;;;;4970703;28;20812;-70
2023/02/21 12:36:01;;;;;;;6.47;1.90;;;10.90;99.90;;;;;;4972296;28;20485;-69
2023/02/21 12:38:34;;;;;;;4.67;2.43;;;10.90;99.90;;;;;;4974116;28;20651;-69
2023/02/21 12:41:12;;;;;;;4.80;2.30;;;10.90;99.90;;;;;;4961848;28;20508;-70
2023/02/21 12:43:52;;;;;;;4.83;2.07;;;10.90;99.90;;;;;;4976296;28;20558;-70
2023/02/21 12:46:27;;;;;;;5.97;2.43;;;10.90;99.90;;;;;;4962232;28;20489;-70
2023/02/21 12:49:02;;;;;;;5.93;1.93;;;10.90;99.90;;;;;;4959748;28;20457;-70
2023/02/21 12:51:35;;;;;;;12.20;2.63;;;10.90;99.90;;;;;;4972206;28;20480;-67
2023/02/21 12:54:06;;;;;;;6.53;2.50;;;10.80;99.90;;;;;;4970739;28;20481;-70
2023/02/21 12:56:39;;;;;;;12.57;3.07;;;10.80;99.90;;;;;;4968255;28;20497;-70
2023/02/21 12:59:15;;;;;;;6.70;2.83;;;10.70;99.90;;;;;;4967663;28;20508;-70
2023/02/21 13:01:48;;;;;;;4.80;2.60;;;10.70;99.90;;;;;;4960150;28;20472;-67
2023/02/21 13:04:24;;;;;;;7.13;2.50;;;10.70;99.90;;;;;;4974161;28;20574;-67
2023/02/21 13:06:58;;;;;;;7.20;2.63;;;10.70;99.90;;;;;;4973482;28;21018;-71
2023/02/21 13:09:33;;;;;;;6.03;2.47;;;10.60;99.90;;;;;;4976491;28;20492;-70
2023/02/21 13:12:07;;;;;;;4.47;2.20;;;10.60;99.90;;;;;;4972448;28;20978;-69
2023/02/21 13:14:42;;;;;;;9.13;2.87;;;10.60;99.90;;;;;;4969786;28;20486;-70
2023/02/21 13:17:13;;;;;;;6.10;2.90;;;10.60;99.90;;;;;;4968970;28;20495;-70
2023/02/21 13:19:50;;;;;;;5.23;2.60;;;10.50;99.90;;;;;;4977867;28;20505;-67
2023/02/21 13:25:56;;;;;;;4.60;2.50;;;10.50;99.90;;;;;;4972831;28;20976;-70
2023/02/21 13:28:28;;;;;;;5.70;2.43;;;10.50;99.90;;;;;;4966548;28;20855;-70
2023/02/21 13:30:59;;;;;;;8.70;2.47;;;10.50;99.90;;;;;;4969770;28;20489;-67
2023/02/21 13:33:38;;;;;;;6.90;2.70;;;10.60;99.90;;;;;;4963312;28;20461;-67
2023/02/21 13:36:20;;;;;;;4.97;2.60;;;10.60;99.90;;;;;;4963093;28;20492;-67
2023/02/21 13:38:59;;;;;;;6.23;2.63;;;10.60;99.90;;;;;;4965626;28;20532;-67
2023/02/21 13:41:30;;;;;;;6.63;2.50;;;10.60;99.90;;;;;;4966499;28;20473;-66
2023/02/21 13:44:00;;;;;;;6.03;2.43;;;10.60;99.90;;;;;;4956200;28;20484;-67
2023/02/21 13:47:04;;;;;;;8.40;2.30;;;10.60;99.90;;;;;;4970546;28;21056;-67
2023/02/21 13:49:49;;;;;;;6.70;2.20;;;10.70;99.90;;;;;;4966261;28;20974;-67
2023/02/21 13:52:58;;;;;;;4.77;2.20;;;10.60;99.90;;;;;;4966104;28;21050;-68
2023/02/21 13:55:30;;;;;;;10.93;1.90;;;10.60;99.90;;;;;;4970587;28;20469;-68
2023/02/21 13:58:29;;;;;;;8.37;2.33;;;10.60;99.90;;;;;;4969484;28;20992;-68
2023/02/21 14:01:12;;;;;;;8.93;2.00;;;10.50;99.90;;;;;;4969116;28;20850;-68
2023/02/21 14:03:41;;;;;;;4.63;2.50;;;10.40;99.90;;;;;;4966113;28;26717;-69
2023/02/21 14:06:29;;;;;;;7.57;2.53;;;10.50;99.90;;;;;;4964356;28;20806;-68
2023/02/21 14:09:00;;;;;;;6.63;2.20;;;10.50;99.90;;;;;;4960071;28;20485;-68
2023/02/21 14:11:35;;;;;;;6.47;2.20;;;10.50;99.90;;;;;;4974865;28;21148;-68
2023/02/21 14:14:06;;;;;;;6.33;2.40;;;10.50;99.90;;;;;;4974502;28;20480;-69
2023/02/21 14:16:37;;;;;;;6.37;1.93;;;10.50;99.90;;;;;;4968522;28;20489;-69
2023/02/21 14:19:08;;;;;;;5.07;2.30;;;10.40;99.90;;;;;;4971595;28;20513;-69
2023/02/21 14:21:40;;;;;;;5.47;2.27;;;10.30;99.90;;;;;;4967492;28;21730;-69
2023/02/21 14:24:13;;;;;;;6.80;2.30;;;10.30;99.90;;;;;;4983059;28;21025;-68
2023/02/21 14:26:45;;;;;;;5.20;2.50;;;10.20;99.90;;;;;;4962760;28;20497;-68
2023/02/21 14:29:29;;;;;;;5.07;1.67;;;10.30;99.90;;;;;;4967671;28;20492;-69
2023/02/21 14:32:23;;;;;;;5.50;2.63;;;10.20;99.90;;;;;;4969267;28;21060;-68
2023/02/21 14:34:54;;;;;;;6.93;2.63;;;10.20;99.90;;;;;;4971166;28;21703;-69
2023/02/21 14:37:28;;;;;;;5.53;1.87;;;10.20;99.90;;;;;;4967861;28;20577;-68
2023/02/21 14:39:59;;;;;;;7.00;1.93;;;10.20;99.90;;;;;;4958508;28;20560;-69
2023/02/21 14:42:52;;;;;;;5.70;2.13;;;10.10;99.90;;;;;;4977400;28;20469;-68
2023/02/21 14:45:40;;;;;;;4.90;1.60;;;10.10;99.90;;;;;;4962957;28;20469;-69
2023/02/21 14:48:40;;;;;;;6.07;1.90;;;10.00;99.90;;;;;;4968567;28;20513;-67
2023/02/21 14:51:38;;;;;;;8.10;1.93;;;10.00;99.90;;;;;;4939344;28;21003;-68
2023/02/21 14:54:52;;;;;;;9.13;2.20;;;10.00;99.90;;;;;;4968403;28;20990;-68
2023/02/21 14:57:58;;;;;;;3.70;1.67;;;10.00;99.90;;;;;;4922395;28;20497;-68
2023/02/21 15:00:35;;;;;;;4.93;1.87;;;10.00;99.90;;;;;;4974607;28;20507;-69
2023/02/21 15:03:11;;;;;;;4.67;1.70;;;10.00;99.90;;;;;;4973492;28;20496;-68
2023/02/21 15:05:45;;;;;;;3.90;2.10;;;10.00;99.90;;;;;;4964020;28;21180;-67
2023/02/21 15:08:17;;;;;;;3.90;1.77;;;9.90;99.90;;;;;;4977715;28;20477;-68
2023/02/21 15:10:49;;;;;;;4.30;1.67;;;9.90;99.90;;;;;;4983233;28;20650;-68
2023/02/21 15:13:23;;;;;;;3.73;2.43;;;9.90;99.90;;;;;;4976964;28;21494;-68
2023/02/21 15:15:57;;;;;;;2.30;1.50;;;9.90;99.90;;;;;;4976941;28;22924;-68
2023/02/21 15:18:27;;;;;;;6.20;2.20;;;9.90;99.90;;;;;;4966116;28;20839;-69
2023/02/21 15:21:05;;;;;;;6.37;2.03;;;9.90;99.90;;;;;;4966352;28;20505;-69
2023/02/21 15:23:33;;;;;;;4.40;1.53;;;9.90;99.90;;;;;;4972594;28;20983;-67
2023/02/21 15:26:18;;;;;;;5.70;1.87;;;9.80;99.90;;;;;;4958476;28;20502;-68
2023/02/21 15:28:46;;;;;;;6.60;1.87;;;9.80;99.90;;;;;;4963751;28;20473;-67
2023/02/21 15:31:16;;;;;;;3.90;1.80;;;9.80;99.90;;;;;;4962729;28;20838;-69
2023/02/21 15:33:45;;;;;;;7.87;2.13;;;9.80;99.90;;;;;;4975568;28;20470;-67
2023/02/21 15:36:17;;;;;;;4.40;1.70;;;9.70;99.90;;;;;;4968895;28;23473;-68
2023/02/21 15:38:49;;;;;;;6.50;2.33;;;9.70;99.90;;;;;;4971891;28;21007;-68